Airfield :
LOGIN :

Register | Disclaimer

   EN    FR    IT 

 










Legend :    VFR   Marginal VFR   IFR   Intensive IFR   Very Intensive IFR
Visi :
Ceiling :
>= 8 km
>= 3000ft
5 to 8 km
1000 to 3000 ft
1500m to 5 km
500 to 1000 ft
800 to 1500m
200 to 500 ft
< 800m
< 200 ft
Symbols :   Thunderstorms  Fog  Heavy snow  Heavy precipitations  Wind > 20 kt
SIGMETs :     Misc.  Thunderstorms  Icing  Turbulence  Mountain Waves  Volcanic Ashes






- Airport Elevation : 650 ft
- IATA code : ZJI


LSZL - Locarno

CURRENT METAR :
  • 222250Z AUTO 05005KT 3900NDV -RASN FEW011 SCT014 BKN027 01/01 Q0994 RMK

EXPIRED METARs :
  • 222220Z AUTO 06005KT 030V090 3200NDV -RASN FEW013 SCT017 BKN027 01/01 Q0994 RMK
  • 222150Z AUTO 06005KT 6000NDV -RASN SCT010 BKN027 01/01 Q0994 RMK
  • 222120Z AUTO 10005KT 6000NDV -RASN FEW003 SCT017 BKN025 01/01 Q0995 RMK
  • 222050Z AUTO 09004KT 5000NDV -RASN BR FEW009 SCT016 BKN025 01/01 Q0995 RERASN RMK
  • 222020Z AUTO 11005KT 6000NDV -SN FEW009 SCT015 01/01 Q0996 RERASN RMK

TAF TAF LSZL
Valid from the 22 at 18:00 until the 23 at 03:00 UTC


221725Z 2218/2303 09008KT 8000 RA FEW017 BKN020
TEMPO 2221/2224 4000 BKN012
PROB30
TEMPO 2221/2224 2500 RASN BKN003



MET'MAP, your aeronautical weather chart ! - Copyright ORBIFLY December 2007 - Disclaimer

ORBIFLY MET'MAP TEAM :

Programming & Development : Alexandra Zaïnal
Concept & original design : Baudouin d'Aumeries
Assistance for programming : Marc-Olivier Méhu
Technical & hardware support : Manuel Goepfert

Contact : metmap@orbifly.com




SOURCES & CREDITS :

   NOAA